Harrisville, MI

12:40 AM EST on November 24, 2014 (GMT -0500)
Oscoda-Wurtsmith | Change Station
CLOSE
Current Station
Airport
Location: Oscoda,
Elevation: 633 ft
Nearby Weather Stations

Elev 633 ft 44.45 °N, 83.39 °W | Updated 7 minutes ago

Rain
Rain
45 °F
Feels Like 38 °F
N
14
Wind Variable Wind from ESE
Gusts 21 mph

Today
High -- | Low -- °F
--% Chance of Precip.
Yesterday
High -- | Low -- °F
Precip. -- in
7:41 AM 4:58 PM
Waxing Crescent, 4% visible
Pressure 29.23 in
Visibility 4.0 miles
Clouds Overcast 400 ft
Windchill 38 °F
Dew Point 44 °F
Humidity 99%
Rainfall 0.17 in
Snow Depth Not available.
UV 0 out of 12
Pollen .10 out of 12
Air Quality Not available.
Flu Activity Not available.
METAR KOSC 240533Z AUTO 12012G18KT 4SM RA OVC004 07/06 A2923 RMK AO2 P0012 T00700068

More Conditions Fewer Conditions

Pressure 29.23 in
Visibility 4.0 miles
Clouds Overcast 400 ft
Windchill 38 °F
Dew Point 44 °F
Humidity 99%
Rainfall 0.17 in
Snow Depth Not available.
UV 0 out of 12
Pollen .10 out of 12
Air Quality Not available.
Flu Activity Not available.
METAR KOSC 240533Z AUTO 12012G18KT 4SM RA OVC004 07/06 A2923 RMK AO2 P0012 T00700068

More Conditions Fewer Conditions

Nowcast | as of 12:00 am EST on November 24, 2014

At 1 am...areas of fog. Rain. Temperature 44. Southeast winds 15 mph. At 3 am...areas of fog. Rain. Temperature 44. Southeast winds 15 mph. At 5 am...areas of fog. Rain. Temperature 45. South winds 14 mph. At 7 am...periods of rain. Temperature 45. South winds 13 mph.

×

10-Day Weather Forecast

Almanac

Astronomy

Nov. 24, 2014 Rise Set
Actual Time
Civil Twilight
Nautical Twilight
Astronomical Twilight
Moon
Length of Visible Light
Length of Day
Tomorrow will be .
, % of the Moon is Illuminated

Today's Extremes

State Highs State Lows

Community

WunderPhotos

Upload Photos

1,773,279 photos uploaded!

WunderBlogs® & News

Nearby

Air Quality

  Air Quality AQ Index Pollutant
Not available.

Snow Depth

Station Depth Elevation

Earthquake Activity

City Distance Mag. Time & Date
Minimum magnitude displayed is 2.5.

Coastal Water Temperatures

Place Temperature

Nearby Weather Stations